createdAt,value
2019-03-30T00:01:12.417Z,32.42
2019-03-30T00:03:41.138Z,31.07
2019-03-30T00:06:09.925Z,31.55
2019-03-30T00:08:38.373Z,30.45
2019-03-30T00:11:06.802Z,30.52
2019-03-30T00:13:35.240Z,30.32
2019-03-30T00:16:03.750Z,29.70
2019-03-30T00:18:32.198Z,28.80
2019-03-30T00:21:00.647Z,29.30
2019-03-30T00:23:29.085Z,27.02
2019-03-30T00:25:57.532Z,29.55
2019-03-30T00:28:25.973Z,28.90
2019-03-30T00:30:54.412Z,27.02
2019-03-30T00:33:22.848Z,27.98
2019-03-30T00:35:51.290Z,26.12
2019-03-30T00:38:19.746Z,27.07
2019-03-30T00:40:48.188Z,27.67
2019-03-30T00:43:16.625Z,25.92
2019-03-30T00:45:45.064Z,26.30
2019-03-30T00:48:13.502Z,25.95
2019-03-30T00:50:43.113Z,24.52
2019-03-30T00:53:11.550Z,27.20
2019-03-30T00:55:39.993Z,26.73
2019-03-30T00:58:08.431Z,26.02
2019-03-30T01:00:36.866Z,25.60
2019-03-30T01:03:05.444Z,26.10
2019-03-30T01:05:33.876Z,26.75
2019-03-30T01:08:02.321Z,25.70
2019-03-30T01:10:30.997Z,24.72
2019-03-30T01:12:59.800Z,25.02
2019-03-30T01:15:28.242Z,24.32
2019-03-30T01:17:56.680Z,23.25
2019-03-30T01:20:25.100Z,22.73
2019-03-30T01:22:55.140Z,23.98
2019-03-30T01:25:23.577Z,23.12
2019-03-30T01:27:52.025Z,23.18
2019-03-30T01:30:23.301Z,22.25
2019-03-30T01:32:50.596Z,22.32
2019-03-30T01:35:19.165Z,20.97
2019-03-30T01:37:47.945Z,21.55
2019-03-30T01:40:16.380Z,21.77
2019-03-30T01:42:44.812Z,22.35
2019-03-30T01:45:13.266Z,20.90
2019-03-30T01:47:41.709Z,19.52
2019-03-30T01:50:17.041Z,22.32
2019-03-30T01:52:40.654Z,22.30
2019-03-30T01:55:10.380Z,21.70
2019-03-30T01:57:38.856Z,19.90
2019-03-30T02:00:08.065Z,20.43
2019-03-30T02:02:36.504Z,20.97
2019-03-30T02:05:06.309Z,20.02
2019-03-30T02:07:34.749Z,19.87
2019-03-30T02:10:03.653Z,18.92
2019-03-30T02:12:32.081Z,18.35
2019-03-30T02:15:00.526Z,19.05
2019-03-30T02:17:28.969Z,19.37
2019-03-30T02:19:57.401Z,17.48
2019-03-30T02:22:25.921Z,17.52
2019-03-30T02:24:54.433Z,17.77
2019-03-30T02:27:22.928Z,17.80
2019-03-30T02:29:51.364Z,18.17
2019-03-30T02:32:19.808Z,19.67
2019-03-30T02:34:48.257Z,18.25
2019-03-30T02:37:16.701Z,16.95
2019-03-30T02:39:45.399Z,16.95
2019-03-30T02:42:13.840Z,18.32
2019-03-30T02:44:42.270Z,16.35
2019-03-30T02:47:10.729Z,17.05
2019-03-30T02:49:39.151Z,16.80
2019-03-30T02:52:07.600Z,16.42
2019-03-30T02:54:36.037Z,16.87
2019-03-30T02:57:04.476Z,17.60
2019-03-30T02:59:32.919Z,16.67
2019-03-30T03:02:01.365Z,16.37
2019-03-30T03:04:29.862Z,16.85
2019-03-30T03:06:58.321Z,16.52
2019-03-30T03:09:26.741Z,16.23
2019-03-30T03:11:55.183Z,16.00
2019-03-30T03:14:23.608Z,16.48
2019-03-30T03:16:53.025Z,16.32
2019-03-30T03:19:21.472Z,16.65
2019-03-30T03:21:49.902Z,15.85
2019-03-30T03:24:18.349Z,16.62
2019-03-30T03:26:46.785Z,17.52
2019-03-30T03:29:15.247Z,15.90
2019-03-30T03:31:43.672Z,16.42
2019-03-30T03:34:12.110Z,15.93
2019-03-30T03:36:40.580Z,15.72
2019-03-30T03:39:09.834Z,17.23
2019-03-30T03:41:38.265Z,17.87
2019-03-30T03:44:06.712Z,17.70
2019-03-30T03:46:35.145Z,17.70
2019-03-30T03:49:04.989Z,16.93
2019-03-30T03:51:34.199Z,17.23
2019-03-30T03:54:02.926Z,17.50
2019-03-30T03:56:33.788Z,16.52
2019-03-30T03:59:02.503Z,18.12
2019-03-30T04:01:32.472Z,17.25
2019-03-30T04:04:02.951Z,16.37
2019-03-30T04:06:32.467Z,18.48
2019-03-30T04:09:04.015Z,17.80
2019-03-30T04:11:32.694Z,17.73
2019-03-30T04:14:03.534Z,17.35
2019-03-30T04:16:31.978Z,17.95
2019-03-30T04:19:00.406Z,17.77
2019-03-30T04:21:42.880Z,17.23
2019-03-30T04:24:00.315Z,17.05
2019-03-30T04:26:30.031Z,18.50
2019-03-30T04:28:58.811Z,18.20
2019-03-30T04:31:27.265Z,16.93
2019-03-30T04:33:55.701Z,18.30
2019-03-30T04:36:24.146Z,17.15
2019-03-30T04:38:52.693Z,18.37
2019-03-30T04:41:21.088Z,18.32
2019-03-30T04:43:49.534Z,17.75
2019-03-30T04:46:18.074Z,18.02
2019-03-30T04:48:46.504Z,18.73
2019-03-30T04:51:14.949Z,17.42
2019-03-30T04:53:43.380Z,17.80
2019-03-30T04:56:11.829Z,16.77
2019-03-30T04:58:40.273Z,18.25
2019-03-30T05:01:08.707Z,17.75
2019-03-30T05:03:37.148Z,17.90
2019-03-30T05:06:05.592Z,16.75
2019-03-30T05:08:34.025Z,17.80
2019-03-30T05:11:02.736Z,16.25
2019-03-30T05:13:31.181Z,16.93
2019-03-30T05:15:59.616Z,17.23
2019-03-30T05:18:28.070Z,16.37
2019-03-30T05:20:56.511Z,17.73
2019-03-30T05:23:24.953Z,17.07
2019-03-30T05:25:53.388Z,16.40
2019-03-30T05:28:21.825Z,17.02
2019-03-30T05:30:50.266Z,16.57
2019-03-30T05:33:18.702Z,16.05
2019-03-30T05:35:47.141Z,16.00
2019-03-30T05:38:16.777Z,15.75
2019-03-30T05:40:45.217Z,16.62
2019-03-30T05:43:13.657Z,14.13
2019-03-30T05:45:42.090Z,16.07
2019-03-30T05:48:10.533Z,18.00
2019-03-30T05:50:38.986Z,16.80
2019-03-30T05:53:07.423Z,17.15
2019-03-30T05:55:35.856Z,16.48
2019-03-30T05:58:04.294Z,15.90
2019-03-30T06:00:32.738Z,16.27
2019-03-30T06:03:01.180Z,17.17
2019-03-30T06:05:29.613Z,16.42
2019-03-30T06:07:58.053Z,17.30
2019-03-30T06:10:26.801Z,17.85
2019-03-30T06:12:55.242Z,16.20
2019-03-30T06:15:23.677Z,16.00
2019-03-30T06:17:52.124Z,17.75
2019-03-30T06:20:20.556Z,16.67
2019-03-30T06:22:48.981Z,18.25
2019-03-30T06:25:17.419Z,18.12
2019-03-30T06:27:45.852Z,17.87
2019-03-30T06:30:18.754Z,18.52
2019-03-30T06:32:47.193Z,17.85
2019-03-30T06:35:15.630Z,18.20
2019-03-30T06:37:45.705Z,19.17
2019-03-30T06:40:14.917Z,18.50
2019-03-30T06:42:43.346Z,20.77
2019-03-30T06:45:11.855Z,18.52
2019-03-30T06:47:40.289Z,20.32
2019-03-30T06:50:09.086Z,19.25
2019-03-30T06:52:37.526Z,19.00
2019-03-30T06:55:07.650Z,19.23
2019-03-30T06:57:36.103Z,17.85
2019-03-30T07:00:05.987Z,19.75
2019-03-30T07:02:34.697Z,19.30
2019-03-30T07:05:03.288Z,19.98
2019-03-30T07:07:32.701Z,19.45
2019-03-30T07:10:02.739Z,20.70
2019-03-30T07:12:32.717Z,20.15
2019-03-30T07:15:02.360Z,18.73
2019-03-30T07:17:32.028Z,18.45
2019-03-30T07:20:02.209Z,18.57
2019-03-30T07:22:30.649Z,19.27
2019-03-30T07:24:59.091Z,20.95
2019-03-30T07:27:27.516Z,19.02
2019-03-30T07:29:55.966Z,19.05
2019-03-30T07:32:24.401Z,16.73
2019-03-30T07:34:54.105Z,16.65
2019-03-30T07:37:22.548Z,17.55
2019-03-30T07:39:50.981Z,18.40
2019-03-30T07:42:19.427Z,17.67
2019-03-30T07:44:47.866Z,17.05
2019-03-30T07:47:16.302Z,18.10
2019-03-30T07:49:44.749Z,18.27
2019-03-30T07:52:13.202Z,17.25
2019-03-30T07:54:41.639Z,18.02
2019-03-30T07:57:16.788Z,20.05
2019-03-30T07:59:40.581Z,17.45
2019-03-30T08:02:09.036Z,16.87
2019-03-30T08:04:37.472Z,17.35
2019-03-30T08:07:06.985Z,17.57
2019-03-30T08:09:37.147Z,16.10
2019-03-30T08:14:35.429Z,16.35
2019-03-30T08:17:03.852Z,17.87
2019-03-30T08:19:32.303Z,17.42
2019-03-30T08:22:00.749Z,16.77
2019-03-30T08:24:29.920Z,16.52
2019-03-30T08:26:58.368Z,16.15
2019-03-30T08:29:26.804Z,16.07
2019-03-30T08:31:55.258Z,16.62
2019-03-30T08:34:23.692Z,17.45
2019-03-30T08:36:52.125Z,18.00
2019-03-30T08:39:20.606Z,18.25
2019-03-30T08:41:49.040Z,16.60
2019-03-30T08:44:17.476Z,17.05
2019-03-30T08:46:45.921Z,16.82
2019-03-30T08:49:14.365Z,16.10
2019-03-30T08:51:42.821Z,18.37
2019-03-30T08:54:11.266Z,17.80
2019-03-30T08:56:39.771Z,16.25
2019-03-30T08:59:08.221Z,16.65
2019-03-30T09:01:36.668Z,18.65
2019-03-30T09:04:05.113Z,18.12
2019-03-30T09:06:33.569Z,17.17
2019-03-30T09:09:02.017Z,18.37
2019-03-30T09:11:32.330Z,17.65
2019-03-30T09:14:00.781Z,17.67
2019-03-30T09:16:29.520Z,21.07
2019-03-30T09:18:57.970Z,18.42
2019-03-30T09:21:26.405Z,19.55
2019-03-30T09:24:08.439Z,20.43
2019-03-30T09:26:24.978Z,17.17
2019-03-30T09:28:53.429Z,17.52
2019-03-30T09:31:21.864Z,17.45
2019-03-30T09:33:50.305Z,18.32
2019-03-30T09:36:18.755Z,14.60
2019-03-30T09:38:47.179Z,17.60
2019-03-30T09:41:15.621Z,17.35
2019-03-30T09:43:44.060Z,17.80
2019-03-30T09:46:12.506Z,15.72
2019-03-30T09:48:42.105Z,17.02
2019-03-30T09:51:11.810Z,16.60
2019-03-30T09:53:40.247Z,15.63
2019-03-30T09:56:08.714Z,17.98
2019-03-30T09:58:37.204Z,17.20
2019-03-30T10:01:05.653Z,16.10
2019-03-30T10:03:35.447Z,14.53
2019-03-30T10:06:03.881Z,17.12
2019-03-30T10:08:32.320Z,17.25
2019-03-30T10:11:00.752Z,17.20
2019-03-30T10:13:29.231Z,16.35
2019-03-30T10:15:57.669Z,18.48
2019-03-30T10:18:26.117Z,19.57
2019-03-30T10:20:54.575Z,18.07
2019-03-30T10:23:23.007Z,17.37
2019-03-30T10:25:51.793Z,17.67
2019-03-30T10:28:20.234Z,16.82
2019-03-30T10:30:48.678Z,18.87
2019-03-30T10:33:17.128Z,17.15
2019-03-30T10:35:45.581Z,19.17
2019-03-30T10:38:14.017Z,18.65
2019-03-30T10:40:43.630Z,18.55
2019-03-30T10:43:12.079Z,18.98
2019-03-30T10:45:40.517Z,17.98
2019-03-30T10:48:08.968Z,21.35
2019-03-30T10:50:37.417Z,15.43
2019-03-30T10:53:07.031Z,19.77
2019-03-30T10:55:35.474Z,18.50
2019-03-30T10:58:03.929Z,19.23
2019-03-30T11:00:36.562Z,21.45
2019-03-30T11:03:05.006Z,18.85
2019-03-30T11:05:33.445Z,17.02
2019-03-30T11:08:01.890Z,19.05
2019-03-30T11:10:30.326Z,18.95
2019-03-30T11:12:58.850Z,22.95
2019-03-30T11:15:27.309Z,17.50
2019-03-30T11:17:55.761Z,19.42
2019-03-30T11:20:24.194Z,17.55
2019-03-30T11:22:52.642Z,19.02
2019-03-30T11:25:21.089Z,19.40
2019-03-30T11:27:49.583Z,14.75
2019-03-30T11:30:18.069Z,17.90
2019-03-30T11:32:46.513Z,20.57
2019-03-30T11:35:14.974Z,18.55
2019-03-30T11:37:43.404Z,17.92
2019-03-30T11:40:11.853Z,16.75
2019-03-30T11:42:40.284Z,14.47
2019-03-30T11:45:08.722Z,18.15
2019-03-30T11:47:37.161Z,16.25
2019-03-30T11:50:06.276Z,16.55
2019-03-30T11:52:34.709Z,15.55
2019-03-30T11:55:04.021Z,17.60
2019-03-30T11:57:33.423Z,16.00
2019-03-30T12:00:01.881Z,16.62
2019-03-30T12:02:30.497Z,15.32
2019-03-30T12:04:58.936Z,15.25
2019-03-30T12:07:27.605Z,16.15
2019-03-30T12:09:56.041Z,15.75
2019-03-30T12:12:24.485Z,14.58
2019-03-30T12:14:52.932Z,14.33
2019-03-30T12:17:21.686Z,15.48
2019-03-30T12:19:50.126Z,16.02
2019-03-30T12:22:18.561Z,15.98
2019-03-30T12:24:48.053Z,15.30
2019-03-30T12:27:16.492Z,14.65
2019-03-30T12:29:44.934Z,15.95
2019-03-30T12:32:13.380Z,11.30
2019-03-30T12:34:42.158Z,15.40
2019-03-30T12:37:10.589Z,14.65
2019-03-30T12:39:39.051Z,15.63
2019-03-30T12:42:07.517Z,15.78
2019-03-30T12:44:35.997Z,16.67
2019-03-30T12:47:04.447Z,14.15
2019-03-30T12:49:32.884Z,15.25
2019-03-30T12:52:01.315Z,15.45
2019-03-30T12:54:29.765Z,13.58
2019-03-30T12:56:58.210Z,13.93
2019-03-30T12:59:26.668Z,15.68
2019-03-30T13:01:55.097Z,15.78
2019-03-30T13:04:23.541Z,15.18
2019-03-30T13:06:51.976Z,16.45
2019-03-30T13:09:20.416Z,16.45
2019-03-30T13:11:48.987Z,15.72
2019-03-30T13:14:17.384Z,17.50
2019-03-30T13:16:45.913Z,17.00
2019-03-30T13:19:14.356Z,18.32
2019-03-30T13:21:52.663Z,17.52
2019-03-30T13:24:15.705Z,17.98
2019-03-30T13:26:44.142Z,17.95
2019-03-30T13:29:12.657Z,18.73
2019-03-30T13:31:41.089Z,18.30
2019-03-30T13:34:09.530Z,18.85
2019-03-30T13:36:39.597Z,17.82
2019-03-30T13:39:08.209Z,17.40
2019-03-30T13:41:36.716Z,19.77
2019-03-30T13:44:05.928Z,16.80
2019-03-30T13:46:34.372Z,19.65
2019-03-30T13:49:02.809Z,17.67
2019-03-30T13:51:31.321Z,20.17
2019-03-30T13:53:59.763Z,17.15
2019-03-30T13:56:28.264Z,18.65
2019-03-30T13:58:56.705Z,18.50
2019-03-30T14:01:25.146Z,15.18
2019-03-30T14:03:53.606Z,15.93
2019-03-30T14:06:22.378Z,15.45
2019-03-30T14:08:50.821Z,15.05
2019-03-30T14:11:19.342Z,14.43
2019-03-30T14:13:47.785Z,15.00
2019-03-30T14:16:17.390Z,15.68
2019-03-30T14:18:45.818Z,15.18
2019-03-30T14:21:14.269Z,16.10
2019-03-30T14:23:43.640Z,15.68
2019-03-30T14:26:12.529Z,15.28
2019-03-30T14:28:42.032Z,13.95
2019-03-30T14:31:10.468Z,16.17
2019-03-30T14:33:38.915Z,17.70
2019-03-30T14:36:07.338Z,15.23
2019-03-30T14:38:35.799Z,15.20
2019-03-30T14:41:04.239Z,15.63
2019-03-30T14:43:32.670Z,17.02
2019-03-30T14:46:02.666Z,16.37
2019-03-30T14:48:31.101Z,17.87
2019-03-30T14:50:59.545Z,15.23
2019-03-30T14:53:27.991Z,16.82
2019-03-30T14:55:56.423Z,16.42
2019-03-30T14:58:24.860Z,16.48
2019-03-30T15:00:53.313Z,16.37
2019-03-30T15:03:21.754Z,16.57
2019-03-30T15:05:50.192Z,16.73
2019-03-30T15:08:18.635Z,15.43
2019-03-30T15:10:47.074Z,17.20
2019-03-30T15:13:15.517Z,15.78
2019-03-30T15:15:43.963Z,16.70
2019-03-30T15:18:12.401Z,17.27
2019-03-30T15:20:40.837Z,18.35
2019-03-30T15:23:09.548Z,17.52
2019-03-30T15:25:38.061Z,17.65
2019-03-30T15:28:06.509Z,19.48
2019-03-30T15:30:34.954Z,19.10
2019-03-30T15:33:03.651Z,19.75
2019-03-30T15:35:32.307Z,19.60
2019-03-30T15:38:00.758Z,20.05
2019-03-30T15:40:29.194Z,19.90
2019-03-30T15:42:59.172Z,21.93
2019-03-30T15:45:27.625Z,22.35
2019-03-30T15:47:56.063Z,23.57
2019-03-30T15:50:24.572Z,24.85
2019-03-30T15:52:53.019Z,23.62
2019-03-30T15:55:21.457Z,22.00
2019-03-30T15:57:49.899Z,23.62
2019-03-30T16:00:19.089Z,19.25
2019-03-30T16:02:47.513Z,21.17
2019-03-30T16:05:16.345Z,20.85
2019-03-30T16:07:44.843Z,18.75
2019-03-30T16:10:13.366Z,19.75
2019-03-30T16:12:41.805Z,19.92
2019-03-30T16:15:10.425Z,20.17
2019-03-30T16:17:38.867Z,21.50
2019-03-30T16:20:07.304Z,22.05
2019-03-30T16:22:35.739Z,20.12
2019-03-30T16:25:05.535Z,20.20
2019-03-30T16:27:33.988Z,20.12
2019-03-30T16:30:02.486Z,21.93
2019-03-30T16:32:30.930Z,22.22
2019-03-30T16:34:59.362Z,22.62
2019-03-30T16:37:27.804Z,21.90
2019-03-30T16:39:56.253Z,22.00
2019-03-30T16:42:24.690Z,24.00
2019-03-30T16:44:53.122Z,28.55
2019-03-30T16:47:21.570Z,28.42
2019-03-30T16:49:50.024Z,27.07
2019-03-30T16:52:18.452Z,28.87
2019-03-30T16:54:46.898Z,27.32
2019-03-30T16:57:15.332Z,29.60
2019-03-30T16:59:43.790Z,28.92
2019-03-30T17:02:12.217Z,28.52
2019-03-30T17:04:40.665Z,27.73
2019-03-30T17:07:09.111Z,29.82
2019-03-30T17:09:37.562Z,27.67
2019-03-30T17:12:06.030Z,29.35
2019-03-30T17:14:34.473Z,28.60
2019-03-30T17:17:03.062Z,28.87
2019-03-30T17:19:31.508Z,28.73
2019-03-30T17:22:01.008Z,28.10
2019-03-30T17:24:29.523Z,29.95
2019-03-30T17:26:57.958Z,29.20
2019-03-30T17:29:26.474Z,29.07
2019-03-30T17:31:55.790Z,29.60
2019-03-30T17:34:24.250Z,30.35
2019-03-30T17:36:52.689Z,28.73
2019-03-30T17:39:21.128Z,28.98
2019-03-30T17:41:49.576Z,28.70
2019-03-30T17:44:18.008Z,28.27
2019-03-30T17:46:46.455Z,29.87
2019-03-30T17:49:14.901Z,29.85
2019-03-30T17:51:43.337Z,29.25
2019-03-30T17:54:11.797Z,30.05
2019-03-30T17:56:40.241Z,28.73
2019-03-30T17:59:08.689Z,28.45
2019-03-30T18:01:37.141Z,29.98
2019-03-30T18:04:05.647Z,28.75
2019-03-30T18:06:34.077Z,28.20
2019-03-30T18:09:02.515Z,29.35
2019-03-30T18:11:32.581Z,27.80
2019-03-30T18:14:01.037Z,26.87
2019-03-30T18:16:29.477Z,27.22
2019-03-30T18:18:57.925Z,27.40
2019-03-30T18:21:26.352Z,27.07
2019-03-30T18:23:54.872Z,28.35
2019-03-30T18:26:23.309Z,28.00
2019-03-30T18:28:51.750Z,27.55
2019-03-30T18:31:20.474Z,27.00
2019-03-30T18:33:49.875Z,27.98
2019-03-30T18:36:18.578Z,27.13
2019-03-30T18:38:47.752Z,27.60
2019-03-30T18:41:16.263Z,27.25
2019-03-30T18:43:44.783Z,26.65
2019-03-30T18:46:13.216Z,26.40
2019-03-30T18:48:41.652Z,29.15
2019-03-30T18:51:10.139Z,34.35
2019-03-30T18:53:38.754Z,43.08
2019-03-30T18:56:07.205Z,32.28
2019-03-30T18:58:41.913Z,33.60
2019-03-30T19:01:06.059Z,28.00
2019-03-30T19:03:34.506Z,27.30
2019-03-30T19:06:03.233Z,28.55
2019-03-30T19:08:34.470Z,26.40
2019-03-30T19:11:01.894Z,28.75
2019-03-30T19:13:30.398Z,29.52
2019-03-30T19:15:58.849Z,30.35
2019-03-30T19:18:27.285Z,31.20
2019-03-30T19:20:55.738Z,29.92
2019-03-30T19:23:24.171Z,29.12
2019-03-30T19:25:52.609Z,30.85
2019-03-30T19:28:21.061Z,30.10
2019-03-30T19:30:49.484Z,29.75
2019-03-30T19:33:17.931Z,29.90
2019-03-30T19:35:46.455Z,29.10
2019-03-30T19:38:14.895Z,28.95
2019-03-30T19:40:43.348Z,29.00
2019-03-30T19:43:11.780Z,31.97
2019-03-30T19:45:40.285Z,32.70
2019-03-30T19:48:10.124Z,35.20
2019-03-30T19:50:38.561Z,33.02
2019-03-30T19:53:07.002Z,30.43
2019-03-30T19:55:36.793Z,30.32
2019-03-30T19:58:05.234Z,30.12
2019-03-30T20:00:33.685Z,29.40
2019-03-30T20:03:02.122Z,28.25
2019-03-30T20:05:30.626Z,31.90
2019-03-30T20:08:11.424Z,29.95
2019-03-30T20:10:29.202Z,29.25
2019-03-30T20:12:57.630Z,30.32
2019-03-30T20:15:26.068Z,29.67
2019-03-30T20:17:54.501Z,30.02
2019-03-30T20:20:23.004Z,28.98
2019-03-30T20:22:51.457Z,27.22
2019-03-30T20:25:19.891Z,29.37
2019-03-30T20:27:48.320Z,31.05
2019-03-30T20:30:17.028Z,34.45
2019-03-30T20:32:45.528Z,33.65
2019-03-30T20:35:14.033Z,33.92
2019-03-30T20:37:42.472Z,35.05
2019-03-30T20:40:10.981Z,35.75
2019-03-30T20:42:39.429Z,37.40
2019-03-30T20:45:08.541Z,36.33
2019-03-30T20:47:36.994Z,33.40
2019-03-30T20:50:06.228Z,35.40
2019-03-30T20:52:34.682Z,37.75
2019-03-30T20:55:03.886Z,38.53
2019-03-30T20:57:32.333Z,35.10
2019-03-30T21:00:00.772Z,35.23
2019-03-30T21:02:29.297Z,33.85
2019-03-30T21:04:57.769Z,33.48
2019-03-30T21:07:26.221Z,37.95
2019-03-30T21:09:54.653Z,39.30
2019-03-30T21:12:23.093Z,36.05
2019-03-30T21:14:51.610Z,35.33
2019-03-30T21:17:20.057Z,33.60
2019-03-30T21:19:48.497Z,33.88
2019-03-30T21:22:16.945Z,34.10
2019-03-30T21:24:45.677Z,33.98
2019-03-30T21:27:14.116Z,36.40
2019-03-30T21:29:53.941Z,33.98
2019-03-30T21:32:12.696Z,34.78
2019-03-30T21:34:41.228Z,36.53
2019-03-30T21:37:09.669Z,34.80
2019-03-30T21:39:39.748Z,36.25
2019-03-30T21:42:09.000Z,35.00
2019-03-30T21:44:37.442Z,35.10
2019-03-30T21:47:05.877Z,39.48
2019-03-30T21:49:34.322Z,38.95
2019-03-30T21:52:02.766Z,36.23
2019-03-30T21:54:31.206Z,35.73
2019-03-30T21:56:59.650Z,34.08
2019-03-30T21:59:28.099Z,33.08
2019-03-30T22:01:56.528Z,33.28
2019-03-30T22:04:24.967Z,32.78
2019-03-30T22:06:53.473Z,36.68
2019-03-30T22:09:21.985Z,36.10
2019-03-30T22:11:50.424Z,33.40
2019-03-30T22:14:18.865Z,33.48
2019-03-30T22:16:48.371Z,34.65
2019-03-30T22:19:18.969Z,32.85
2019-03-30T22:21:48.066Z,33.23
2019-03-30T22:24:16.525Z,30.72
2019-03-30T22:26:45.063Z,31.30
2019-03-30T22:29:13.493Z,31.25
2019-03-30T22:31:41.933Z,33.23
2019-03-30T22:34:10.379Z,32.25
2019-03-30T22:36:38.822Z,31.60
2019-03-30T22:39:07.320Z,31.10
2019-03-30T22:41:37.356Z,31.02
2019-03-30T22:44:05.809Z,32.50
2019-03-30T22:46:34.249Z,34.25
2019-03-30T22:49:02.696Z,29.72
2019-03-30T22:51:31.142Z,32.40
2019-03-30T22:53:59.579Z,33.15
2019-03-30T22:56:28.017Z,32.95
2019-03-30T22:58:56.462Z,34.83
2019-03-30T23:01:25.674Z,32.10
2019-03-30T23:03:54.180Z,32.95
2019-03-30T23:06:22.622Z,33.02
2019-03-30T23:08:51.132Z,33.15
2019-03-30T23:11:19.568Z,32.83
2019-03-30T23:13:48.014Z,35.03
2019-03-30T23:16:16.453Z,33.30
2019-03-30T23:18:45.418Z,32.98
2019-03-30T23:21:16.600Z,35.78
2019-03-30T23:23:45.053Z,35.68
2019-03-30T23:26:13.493Z,33.95
2019-03-30T23:28:41.941Z,34.18
2019-03-30T23:31:10.378Z,32.67
2019-03-30T23:33:38.817Z,33.78
2019-03-30T23:36:07.244Z,34.58
2019-03-30T23:38:35.689Z,33.75
2019-03-30T23:41:04.131Z,34.35
2019-03-30T23:43:32.582Z,33.48
2019-03-30T23:46:01.016Z,33.45
2019-03-30T23:48:29.452Z,35.35
2019-03-30T23:50:57.884Z,33.65
2019-03-30T23:53:26.329Z,36.80
2019-03-30T23:55:54.773Z,34.38
2019-03-30T23:58:23.209Z,35.73
